Time;durP1;ratioP1;P1;durP2;ratioP2;P2;SDS_P1;SDS_P2;PMS_P1;PMS_P2;Temp;Humidity;BMP_temperature;BMP_pressure;BME280_temperature;BME280_humidity;BME280_pressure;Samples;Min_cycle;Max_cycle;Signal;HPM_P1;HPM_P2
2021/09/22 00:00:41;;;;;;;19.17;12.60;;;;;;;;;;4770447;30;20067;-83
2021/09/22 00:03:06;;;;;;;16.52;11.63;;;;;;;;;;4761653;30;20036;-84
2021/09/22 00:05:32;;;;;;;16.75;12.07;;;;;;;;;;4772453;29;20055;-83
2021/09/22 00:07:58;;;;;;;16.83;12.45;;;;;;;;;;4766305;29;20404;-83
2021/09/22 00:10:23;;;;;;;18.48;13.25;;;;;;;;;;4743211;30;20039;-83
2021/09/22 00:12:49;;;;;;;20.23;13.38;;;;;;;;;;4787029;29;20042;-84
2021/09/22 00:15:17;;;;;;;18.10;13.82;;;;;;;;;;4792973;29;20036;-84
2021/09/22 00:17:43;;;;;;;18.13;13.88;;;;;;;;;;4785171;29;20114;-83
2021/09/22 00:20:10;;;;;;;19.52;13.20;;;;;;;;;;4768725;29;20159;-83
2021/09/22 00:22:35;;;;;;;19.10;13.13;;;;;;;;;;4766285;30;20039;-83
2021/09/22 00:25:02;;;;;;;20.00;13.65;;;;;;;;;;4773162;30;20036;-84
2021/09/22 00:27:27;;;;;;;21.33;13.98;;;;;;;;;;4785503;29;20484;-85
2021/09/22 00:29:53;;;;;;;17.20;12.90;;;;;;;;;;4797115;29;20042;-84
2021/09/22 00:32:18;;;;;;;21.63;13.73;;;;;;;;;;4790179;29;20045;-84
2021/09/22 00:34:43;;;;;;;20.25;14.38;;;;;;;;;;4784219;30;20039;-83
2021/09/22 00:37:09;;;;;;;19.25;13.73;;;;;;;;;;4772326;29;20054;-84
2021/09/22 00:39:34;;;;;;;19.75;12.93;;;;;;;;;;4781720;30;20032;-85
2021/09/22 00:42:04;;;;;;;18.50;13.43;;;;;;;;;;4770587;30;22019;-82
2021/09/22 00:44:30;;;;;;;17.88;13.57;;;;;;;;;;4786165;29;20031;-84
2021/09/22 00:46:56;;;;;;;19.25;13.25;;;;;;;;;;4777605;29;20050;-83
2021/09/22 00:49:21;;;;;;;18.23;12.80;;;;;;;;;;4790101;29;20486;-85
2021/09/22 00:51:47;;;;;;;17.20;13.07;;;;;;;;;;4776358;30;20039;-85
2021/09/22 00:54:13;;;;;;;17.63;12.70;;;;;;;;;;4786623;29;20055;-83
2021/09/22 00:56:38;;;;;;;19.80;13.95;;;;;;;;;;4773570;29;20053;-84
2021/09/22 00:59:05;;;;;;;19.05;12.60;;;;;;;;;;4784601;29;20404;-83
2021/09/22 01:01:30;;;;;;;16.92;12.77;;;;;;;;;;4786724;29;20047;-84
2021/09/22 01:03:56;;;;;;;17.40;12.77;;;;;;;;;;4767510;30;20031;-84
2021/09/22 01:06:22;;;;;;;18.33;12.68;;;;;;;;;;4757209;30;20050;-84
2021/09/22 01:08:47;;;;;;;18.30;13.38;;;;;;;;;;4782169;30;20389;-84
2021/09/22 01:11:13;;;;;;;17.63;12.68;;;;;;;;;;4784944;30;20039;-83
2021/09/22 01:13:38;;;;;;;20.45;13.43;;;;;;;;;;4794568;29;20118;-85
2021/09/22 01:16:04;;;;;;;19.10;13.68;;;;;;;;;;4764913;30;20039;-83
2021/09/22 01:18:30;;;;;;;17.25;12.70;;;;;;;;;;4790158;29;20058;-83
2021/09/22 01:20:57;;;;;;;21.65;13.82;;;;;;;;;;4791306;29;20046;-84
2021/09/22 01:23:25;;;;;;;18.45;12.60;;;;;;;;;;4787472;29;20040;-85
2021/09/22 01:25:52;;;;;;;18.67;13.82;;;;;;;;;;4777814;30;20046;-84
2021/09/22 01:28:21;;;;;;;18.90;13.52;;;;;;;;;;4791463;29;20050;-84
2021/09/22 01:30:47;;;;;;;18.40;13.35;;;;;;;;;;4776494;29;20063;-83
2021/09/22 01:33:15;;;;;;;18.95;13.23;;;;;;;;;;4781363;29;20506;-84
2021/09/22 01:35:45;;;;;;;19.20;13.10;;;;;;;;;;4769614;30;20043;-83
2021/09/22 01:38:13;;;;;;;20.27;13.40;;;;;;;;;;4785345;29;20032;-83
2021/09/22 01:40:39;;;;;;;18.90;12.85;;;;;;;;;;4792994;29;20032;-83
2021/09/22 01:43:05;;;;;;;19.58;13.57;;;;;;;;;;4791158;29;20035;-84
2021/09/22 01:45:31;;;;;;;21.10;13.05;;;;;;;;;;4786071;29;20031;-84
2021/09/22 01:47:58;;;;;;;18.33;13.27;;;;;;;;;;4770369;29;20553;-83
2021/09/22 01:50:24;;;;;;;17.58;12.95;;;;;;;;;;4777922;30;20035;-84
2021/09/22 01:52:52;;;;;;;19.25;13.55;;;;;;;;;;4789652;30;20068;-85
2021/09/22 01:55:22;;;;;;;18.17;12.63;;;;;;;;;;4787437;29;20083;-84
2021/09/22 01:57:49;;;;;;;17.52;12.88;;;;;;;;;;4768552;29;20036;-83
2021/09/22 02:00:15;;;;;;;18.88;13.35;;;;;;;;;;4798051;29;20156;-82
2021/09/22 02:02:41;;;;;;;19.00;13.07;;;;;;;;;;4772019;29;20109;-83
2021/09/22 02:05:07;;;;;;;20.13;13.52;;;;;;;;;;4792836;29;20047;-83
2021/09/22 02:07:33;;;;;;;19.38;14.02;;;;;;;;;;4773082;30;20085;-83
2021/09/22 02:09:59;;;;;;;20.00;14.32;;;;;;;;;;4785759;29;20110;-82
2021/09/22 02:12:26;;;;;;;22.88;14.60;;;;;;;;;;4760979;29;20129;-84
2021/09/22 02:14:52;;;;;;;19.95;14.48;;;;;;;;;;4777694;29;20034;-84
2021/09/22 02:17:17;;;;;;;20.25;13.10;;;;;;;;;;4761910;29;20035;-83
2021/09/22 02:19:44;;;;;;;19.25;14.05;;;;;;;;;;4783414;30;20114;-85
2021/09/22 02:22:09;;;;;;;20.17;13.75;;;;;;;;;;4775778;29;20107;-85
2021/09/22 02:24:34;;;;;;;20.65;14.27;;;;;;;;;;4760388;29;20122;-83
2021/09/22 02:27:00;;;;;;;19.00;13.15;;;;;;;;;;4783617;29;20412;-84
2021/09/22 02:29:25;;;;;;;18.70;13.48;;;;;;;;;;4775663;29;20043;-83
2021/09/22 02:31:51;;;;;;;19.48;13.07;;;;;;;;;;4783477;30;20108;-82
2021/09/22 02:34:16;;;;;;;20.23;13.68;;;;;;;;;;4787305;29;20169;-82
2021/09/22 02:36:42;;;;;;;18.63;13.20;;;;;;;;;;4786694;29;20038;-84
2021/09/22 02:39:08;;;;;;;15.90;12.18;;;;;;;;;;4786910;29;20032;-84
2021/09/22 02:41:35;;;;;;;18.63;13.45;;;;;;;;;;4786199;29;20035;-84
2021/09/22 02:44:00;;;;;;;20.83;13.50;;;;;;;;;;4772207;29;20459;-84
2021/09/22 02:46:27;;;;;;;20.08;14.05;;;;;;;;;;4784996;29;20137;-85
2021/09/22 02:48:54;;;;;;;19.88;14.32;;;;;;;;;;4791301;29;20042;-82
2021/09/22 02:51:19;;;;;;;18.45;13.10;;;;;;;;;;4756652;30;20401;-84
2021/09/22 02:53:44;;;;;;;19.05;13.30;;;;;;;;;;4782892;30;20112;-84
2021/09/22 02:56:10;;;;;;;20.17;13.73;;;;;;;;;;4759681;29;20441;-82
2021/09/22 02:58:35;;;;;;;17.75;13.52;;;;;;;;;;4776213;29;20039;-83
2021/09/22 03:01:01;;;;;;;17.92;12.80;;;;;;;;;;4771246;30;20558;-83
2021/09/22 03:03:27;;;;;;;20.60;13.73;;;;;;;;;;4752062;30;20032;-84
2021/09/22 03:05:53;;;;;;;19.15;14.18;;;;;;;;;;4752917;30;20533;-82
2021/09/22 03:08:18;;;;;;;19.27;14.23;;;;;;;;;;4789361;29;20035;-84
2021/09/22 03:10:44;;;;;;;21.48;13.80;;;;;;;;;;4783859;29;20071;-84
2021/09/22 03:13:09;;;;;;;23.23;14.05;;;;;;;;;;4775699;30;20031;-82
2021/09/22 03:15:35;;;;;;;18.13;13.90;;;;;;;;;;4789518;29;20027;-82
2021/09/22 03:18:00;;;;;;;19.65;12.68;;;;;;;;;;4788168;29;20400;-83
2021/09/22 03:20:25;;;;;;;19.48;13.07;;;;;;;;;;4757909;30;20050;-83
2021/09/22 03:22:51;;;;;;;18.00;12.98;;;;;;;;;;4772816;30;20416;-84
2021/09/22 03:25:16;;;;;;;18.65;13.02;;;;;;;;;;4777216;30;20396;-82
2021/09/22 03:27:42;;;;;;;18.48;12.98;;;;;;;;;;4787201;29;20039;-84
2021/09/22 03:30:10;;;;;;;19.58;12.88;;;;;;;;;;4763693;30;20050;-82
2021/09/22 03:32:35;;;;;;;20.10;12.75;;;;;;;;;;4782657;29;20027;-83
2021/09/22 03:35:01;;;;;;;18.30;13.57;;;;;;;;;;4787596;29;20039;-82
2021/09/22 03:37:26;;;;;;;17.60;12.40;;;;;;;;;;4775170;29;20040;-84
2021/09/22 03:39:52;;;;;;;18.95;13.50;;;;;;;;;;4774102;29;20051;-82
2021/09/22 03:42:17;;;;;;;20.45;12.35;;;;;;;;;;4788527;29;20134;-82
2021/09/22 03:44:43;;;;;;;20.55;13.52;;;;;;;;;;4762973;30;20545;-84
2021/09/22 03:47:08;;;;;;;18.85;13.73;;;;;;;;;;4786321;29;20042;-82
2021/09/22 03:49:34;;;;;;;17.42;12.35;;;;;;;;;;4770221;30;20376;-84
2021/09/22 03:52:00;;;;;;;17.58;12.32;;;;;;;;;;4791347;29;20035;-85
2021/09/22 03:54:25;;;;;;;17.50;12.10;;;;;;;;;;4772558;30;20052;-85
2021/09/22 03:56:51;;;;;;;16.42;12.10;;;;;;;;;;4790694;29;20042;-82
2021/09/22 03:59:16;;;;;;;17.38;12.20;;;;;;;;;;4782572;29;20104;-82
2021/09/22 04:01:42;;;;;;;17.50;12.57;;;;;;;;;;4800276;29;20050;-84
2021/09/22 04:04:07;;;;;;;19.67;12.73;;;;;;;;;;4784447;29;20101;-82
2021/09/22 04:06:33;;;;;;;18.58;12.77;;;;;;;;;;4788885;29;20100;-85
2021/09/22 04:08:58;;;;;;;16.83;12.23;;;;;;;;;;4785808;29;20055;-82
2021/09/22 04:11:24;;;;;;;19.40;13.18;;;;;;;;;;4778889;29;20043;-84
2021/09/22 04:13:49;;;;;;;21.48;14.18;;;;;;;;;;4776787;29;20086;-82
2021/09/22 04:16:15;;;;;;;20.63;13.45;;;;;;;;;;4772626;30;20142;-85
2021/09/22 04:18:41;;;;;;;22.85;13.48;;;;;;;;;;4785689;29;20531;-84
2021/09/22 04:21:06;;;;;;;19.92;13.88;;;;;;;;;;4788218;29;20118;-85
2021/09/22 04:23:32;;;;;;;19.15;13.38;;;;;;;;;;4775632;30;20065;-85
2021/09/22 04:25:57;;;;;;;21.10;13.52;;;;;;;;;;4781639;29;20126;-82
2021/09/22 04:28:23;;;;;;;17.92;13.48;;;;;;;;;;4789104;29;20069;-84
2021/09/22 04:30:48;;;;;;;19.92;12.90;;;;;;;;;;4782185;29;20096;-85
2021/09/22 04:33:14;;;;;;;18.42;13.15;;;;;;;;;;4743894;30;20088;-82
2021/09/22 04:35:39;;;;;;;20.00;12.88;;;;;;;;;;4782577;29;20538;-82
2021/09/22 04:38:06;;;;;;;19.85;13.35;;;;;;;;;;4791670;29;20110;-83
2021/09/22 04:40:33;;;;;;;20.38;13.90;;;;;;;;;;4771913;29;20043;-83
2021/09/22 04:43:00;;;;;;;18.77;12.80;;;;;;;;;;4787927;29;20044;-82
2021/09/22 04:45:25;;;;;;;19.27;12.43;;;;;;;;;;4786725;30;20043;-83
2021/09/22 04:47:52;;;;;;;19.35;13.07;;;;;;;;;;4773969;30;20035;-84
2021/09/22 04:50:18;;;;;;;20.63;13.88;;;;;;;;;;4800322;29;20035;-83
2021/09/22 04:52:43;;;;;;;20.20;13.18;;;;;;;;;;4775975;30;20142;-84
2021/09/22 04:55:09;;;;;;;18.02;12.32;;;;;;;;;;4782873;29;20051;-82
2021/09/22 04:57:35;;;;;;;19.60;13.00;;;;;;;;;;4792328;29;20062;-84
2021/09/22 05:00:00;;;;;;;19.88;12.80;;;;;;;;;;4776159;29;20035;-84
2021/09/22 05:02:26;;;;;;;19.23;13.63;;;;;;;;;;4761120;29;20082;-82
2021/09/22 05:04:51;;;;;;;19.00;12.50;;;;;;;;;;4803072;29;20130;-82
2021/09/22 05:07:17;;;;;;;18.38;12.93;;;;;;;;;;4752971;29;20037;-84
2021/09/22 05:09:42;;;;;;;19.25;12.45;;;;;;;;;;4787242;29;20043;-84
2021/09/22 05:12:07;;;;;;;18.92;13.25;;;;;;;;;;4770182;30;20074;-85
2021/09/22 05:14:33;;;;;;;20.48;13.07;;;;;;;;;;4759970;30;20051;-84
2021/09/22 05:16:58;;;;;;;22.50;13.50;;;;;;;;;;4761936;29;20046;-83
2021/09/22 05:19:24;;;;;;;19.88;12.95;;;;;;;;;;4786509;29;20092;-84
2021/09/22 05:21:50;;;;;;;20.27;13.23;;;;;;;;;;4780961;30;20047;-84
2021/09/22 05:24:15;;;;;;;18.60;12.15;;;;;;;;;;4776650;29;20453;-82
2021/09/22 05:26:41;;;;;;;19.83;13.23;;;;;;;;;;4781197;30;20514;-82
2021/09/22 05:29:06;;;;;;;22.90;13.27;;;;;;;;;;4791371;29;20039;-84
2021/09/22 05:31:32;;;;;;;20.55;13.32;;;;;;;;;;4777604;30;20460;-82
2021/09/22 05:33:57;;;;;;;21.42;13.68;;;;;;;;;;4792385;29;20373;-82
2021/09/22 05:36:23;;;;;;;19.83;12.93;;;;;;;;;;4789615;29;20508;-82
2021/09/22 05:38:48;;;;;;;21.17;13.25;;;;;;;;;;4790406;30;20687;-84
2021/09/22 05:41:14;;;;;;;18.05;12.18;;;;;;;;;;4792724;29;20051;-84
2021/09/22 05:43:39;;;;;;;19.73;13.20;;;;;;;;;;4760480;29;20038;-84
2021/09/22 05:46:05;;;;;;;18.10;12.68;;;;;;;;;;4789903;30;20042;-84
2021/09/22 05:48:30;;;;;;;18.58;12.02;;;;;;;;;;4790191;29;20508;-84
2021/09/22 05:50:57;;;;;;;18.35;12.98;;;;;;;;;;4788300;29;20039;-82
2021/09/22 05:53:23;;;;;;;18.25;12.70;;;;;;;;;;4774693;29;20062;-82
2021/09/22 05:55:48;;;;;;;20.85;12.70;;;;;;;;;;4800604;29;20045;-84
2021/09/22 05:58:17;;;;;;;19.55;13.18;;;;;;;;;;4770611;29;20465;-82
2021/09/22 06:00:43;;;;;;;21.67;12.98;;;;;;;;;;4779757;29;20047;-84
2021/09/22 06:03:09;;;;;;;20.20;12.80;;;;;;;;;;4800016;29;20035;-84
2021/09/22 06:05:35;;;;;;;19.25;12.70;;;;;;;;;;4762351;30;20416;-84
2021/09/22 06:08:01;;;;;;;18.30;11.98;;;;;;;;;;4789276;29;20678;-84
2021/09/22 06:10:26;;;;;;;21.73;13.75;;;;;;;;;;4775093;30;20112;-82
2021/09/22 06:12:52;;;;;;;18.05;12.77;;;;;;;;;;4785372;29;20050;-82
2021/09/22 06:15:17;;;;;;;21.73;14.20;;;;;;;;;;4773845;29;20027;-81
2021/09/22 06:17:43;;;;;;;21.23;13.32;;;;;;;;;;4779088;30;20039;-84
2021/09/22 06:20:09;;;;;;;22.75;14.70;;;;;;;;;;4759376;30;20043;-83
2021/09/22 06:22:35;;;;;;;21.15;13.70;;;;;;;;;;4764623;30;20092;-83
2021/09/22 06:25:00;;;;;;;21.80;14.27;;;;;;;;;;4775694;29;20110;-84
2021/09/22 06:27:26;;;;;;;22.83;13.68;;;;;;;;;;4787885;29;20118;-84
2021/09/22 06:29:52;;;;;;;22.48;13.63;;;;;;;;;;4758942;30;20027;-82
2021/09/22 06:32:17;;;;;;;22.98;13.93;;;;;;;;;;4789938;29;20777;-83
2021/09/22 06:34:43;;;;;;;24.27;15.00;;;;;;;;;;4776489;30;20114;-82
2021/09/22 06:37:09;;;;;;;26.88;14.48;;;;;;;;;;4789473;29;20040;-83
2021/09/22 06:39:34;;;;;;;21.45;14.38;;;;;;;;;;4774917;30;20098;-85
2021/09/22 06:42:00;;;;;;;23.50;15.02;;;;;;;;;;4775113;30;20039;-84
2021/09/22 06:44:25;;;;;;;22.13;14.73;;;;;;;;;;4790847;29;20102;-84
2021/09/22 06:46:51;;;;;;;22.20;15.10;;;;;;;;;;4768285;29;20039;-84
2021/09/22 06:49:16;;;;;;;21.65;14.95;;;;;;;;;;4773695;29;20042;-84
2021/09/22 06:51:42;;;;;;;20.95;15.05;;;;;;;;;;4787403;29;20051;-82
2021/09/22 06:54:07;;;;;;;23.33;15.30;;;;;;;;;;4794822;29;20412;-84
2021/09/22 06:56:33;;;;;;;23.63;15.27;;;;;;;;;;4772974;30;20440;-82
2021/09/22 06:58:58;;;;;;;22.88;14.88;;;;;;;;;;4773105;29;20035;-82
2021/09/22 07:01:23;;;;;;;21.98;15.18;;;;;;;;;;4785536;29;20035;-82
2021/09/22 07:03:49;;;;;;;23.65;15.52;;;;;;;;;;4788745;29;20045;-84
2021/09/22 07:06:14;;;;;;;22.92;15.45;;;;;;;;;;4790072;29;20054;-82
2021/09/22 07:08:40;;;;;;;22.55;14.95;;;;;;;;;;4779236;30;20089;-84
2021/09/22 07:11:06;;;;;;;23.88;15.63;;;;;;;;;;4772588;30;20058;-82
2021/09/22 07:13:33;;;;;;;25.92;15.15;;;;;;;;;;4772783;30;20119;-84
2021/09/22 07:15:59;;;;;;;25.80;15.85;;;;;;;;;;4795119;29;20457;-82
2021/09/22 07:18:24;;;;;;;21.60;15.20;;;;;;;;;;4777045;30;20035;-84
2021/09/22 07:20:50;;;;;;;26.75;15.52;;;;;;;;;;4769186;29;20492;-84
2021/09/22 07:23:15;;;;;;;26.42;15.13;;;;;;;;;;4791339;29;20721;-83
2021/09/22 07:25:41;;;;;;;21.45;15.13;;;;;;;;;;4773666;30;20407;-84
2021/09/22 07:28:07;;;;;;;21.92;13.77;;;;;;;;;;4787266;29;20474;-84
2021/09/22 07:30:33;;;;;;;24.83;15.85;;;;;;;;;;4790815;29;20110;-82
2021/09/22 07:33:00;;;;;;;23.60;14.98;;;;;;;;;;4780183;30;20631;-84
2021/09/22 07:35:27;;;;;;;22.38;15.55;;;;;;;;;;4773385;30;20035;-82
2021/09/22 07:37:52;;;;;;;23.33;15.85;;;;;;;;;;4787531;29;20039;-82
2021/09/22 07:40:18;;;;;;;22.35;15.50;;;;;;;;;;4768818;29;20063;-84
2021/09/22 07:42:44;;;;;;;22.88;14.00;;;;;;;;;;4758117;30;20039;-82
2021/09/22 07:45:11;;;;;;;23.80;15.98;;;;;;;;;;4791064;29;20043;-84
2021/09/22 07:47:37;;;;;;;25.85;16.05;;;;;;;;;;4783613;29;20118;-84
2021/09/22 07:50:05;;;;;;;23.38;15.55;;;;;;;;;;4788868;29;20070;-84
2021/09/22 07:52:31;;;;;;;21.85;15.30;;;;;;;;;;4787436;29;20172;-82
2021/09/22 07:54:56;;;;;;;26.10;15.85;;;;;;;;;;4773516;30;20130;-84
2021/09/22 07:57:22;;;;;;;24.15;15.05;;;;;;;;;;4785188;29;20047;-82
2021/09/22 07:59:48;;;;;;;25.75;15.68;;;;;;;;;;4788088;29;20377;-83
2021/09/22 08:02:13;;;;;;;23.40;15.15;;;;;;;;;;4775210;29;20122;-83
2021/09/22 08:04:39;;;;;;;22.92;16.00;;;;;;;;;;4795527;29;20081;-82
2021/09/22 08:07:04;;;;;;;21.38;15.20;;;;;;;;;;4770964;29;20043;-82
2021/09/22 08:09:31;;;;;;;24.27;15.13;;;;;;;;;;4771550;29;20070;-82
2021/09/22 08:11:56;;;;;;;21.83;15.43;;;;;;;;;;4778953;30;20407;-82
2021/09/22 08:14:28;;;;;;;21.90;15.57;;;;;;;;;;4772163;30;20118;-84
2021/09/22 08:16:54;;;;;;;21.60;14.70;;;;;;;;;;4765965;30;20036;-83
2021/09/22 08:19:19;;;;;;;22.38;15.57;;;;;;;;;;4794279;29;20491;-82
2021/09/22 08:21:45;;;;;;;23.27;16.63;;;;;;;;;;4759909;30;20038;-82
2021/09/22 08:24:10;;;;;;;23.67;15.77;;;;;;;;;;4748234;30;20027;-82
2021/09/22 08:26:36;;;;;;;21.40;15.65;;;;;;;;;;4794394;29;20031;-82
2021/09/22 08:29:01;;;;;;;23.38;15.32;;;;;;;;;;4775509;29;20031;-82
2021/09/22 08:31:26;;;;;;;23.58;15.30;;;;;;;;;;4765564;30;20050;-82
2021/09/22 08:33:52;;;;;;;19.60;15.02;;;;;;;;;;4777902;29;20050;-84
2021/09/22 08:36:17;;;;;;;21.27;14.95;;;;;;;;;;4762613;30;20038;-83
2021/09/22 08:38:43;;;;;;;21.23;14.80;;;;;;;;;;4760848;29;20040;-82
2021/09/22 08:41:08;;;;;;;20.95;15.00;;;;;;;;;;4779032;30;20031;-84
2021/09/22 08:43:34;;;;;;;23.88;15.13;;;;;;;;;;4782146;30;20483;-83
2021/09/22 08:46:00;;;;;;;22.58;15.45;;;;;;;;;;4780533;29;20080;-83
2021/09/22 08:48:26;;;;;;;23.60;15.30;;;;;;;;;;4782661;30;20031;-83
2021/09/22 08:50:55;;;;;;;20.70;14.65;;;;;;;;;;4745882;30;20067;-82
2021/09/22 08:53:21;;;;;;;20.17;13.85;;;;;;;;;;4782951;29;20098;-82
2021/09/22 08:55:47;;;;;;;22.05;14.23;;;;;;;;;;4794957;29;20059;-83
2021/09/22 08:58:12;;;;;;;19.33;13.27;;;;;;;;;;4784859;29;20050;-84
2021/09/22 09:00:38;;;;;;;19.77;14.05;;;;;;;;;;4802377;29;20092;-83
2021/09/22 09:03:04;;;;;;;21.58;14.68;;;;;;;;;;4778313;30;20058;-83
2021/09/22 09:05:29;;;;;;;21.67;13.88;;;;;;;;;;4797759;29;20084;-84
2021/09/22 09:07:59;;;;;;;18.20;12.68;;;;;;;;;;4777838;30;20066;-84
2021/09/22 09:10:28;;;;;;;21.17;13.20;;;;;;;;;;4792065;30;20085;-82
2021/09/22 09:13:40;;;;;;;17.85;13.68;;;;;;;;;;4797452;29;20376;-83
2021/09/22 09:16:14;;;;;;;18.52;12.68;;;;;;;;;;4768695;30;20047;-85
2021/09/22 09:18:50;;;;;;;18.42;12.68;;;;;;;;;;4780246;30;20043;-85
2021/09/22 09:21:16;;;;;;;19.90;13.23;;;;;;;;;;4786017;30;20039;-83
2021/09/22 09:23:53;;;;;;;19.83;12.70;;;;;;;;;;4789240;29;20028;-83
2021/09/22 09:26:24;;;;;;;16.83;11.57;;;;;;;;;;4794987;29;20031;-86
2021/09/22 09:28:56;;;;;;;18.20;12.98;;;;;;;;;;4791053;29;20046;-82
2021/09/22 09:31:23;;;;;;;69.30;15.15;;;;;;;;;;4786648;29;20080;-86
2021/09/22 09:33:50;;;;;;;18.38;12.77;;;;;;;;;;4768466;30;20039;-86
2021/09/22 09:36:34;;;;;;;17.50;11.30;;;;;;;;;;4790829;29;20432;-86
2021/09/22 09:38:59;;;;;;;18.98;12.18;;;;;;;;;;4779811;30;20067;-84
2021/09/22 09:41:49;;;;;;;17.45;11.70;;;;;;;;;;4789902;29;20038;-85
2021/09/22 09:44:17;;;;;;;16.13;11.88;;;;;;;;;;4791295;29;20028;-85
2021/09/22 09:46:44;;;;;;;18.63;12.07;;;;;;;;;;4789976;29;20054;-84
2021/09/22 09:49:15;;;;;;;19.23;12.13;;;;;;;;;;4773470;29;20050;-83
2021/09/22 09:51:49;;;;;;;19.40;12.23;;;;;;;;;;4800868;29;20035;-85
2021/09/22 09:54:24;;;;;;;20.92;12.50;;;;;;;;;;4783619;29;20051;-84
2021/09/22 09:56:53;;;;;;;20.13;12.23;;;;;;;;;;4775093;30;20507;-85
2021/09/22 09:59:19;;;;;;;17.75;11.73;;;;;;;;;;4772612;30;20158;-84
2021/09/22 10:01:51;;;;;;;21.25;11.98;;;;;;;;;;4765798;30;20065;-86
2021/09/22 10:04:19;;;;;;;22.08;11.45;;;;;;;;;;4773290;30;20493;-86
2021/09/22 10:06:46;;;;;;;16.30;11.10;;;;;;;;;;4780544;30;20055;-84
2021/09/22 10:09:12;;;;;;;16.15;10.60;;;;;;;;;;4777271;30;20074;-86
2021/09/22 10:11:40;;;;;;;18.02;10.93;;;;;;;;;;4754082;30;20031;-83
2021/09/22 10:14:07;;;;;;;16.50;10.75;;;;;;;;;;4781105;30;20097;-86
2021/09/22 10:16:34;;;;;;;21.60;12.07;;;;;;;;;;4756780;30;20873;-84
2021/09/22 10:19:01;;;;;;;16.95;10.65;;;;;;;;;;4765799;30;20036;-84
2021/09/22 10:21:27;;;;;;;17.52;11.00;;;;;;;;;;4733329;30;20034;-84
2021/09/22 10:23:55;;;;;;;15.80;10.68;;;;;;;;;;4757777;30;20047;-86
2021/09/22 10:26:21;;;;;;;14.68;9.98;;;;;;;;;;4771982;30;20408;-84
2021/09/22 10:28:47;;;;;;;21.80;11.32;;;;;;;;;;4751677;30;20503;-84
2021/09/22 10:31:17;;;;;;;17.05;10.50;;;;;;;;;;4756877;30;20131;-85
2021/09/22 10:33:45;;;;;;;16.85;11.00;;;;;;;;;;4775238;30;20046;-85
2021/09/22 10:36:11;;;;;;;16.33;10.80;;;;;;;;;;4764426;30;20034;-85
2021/09/22 10:38:45;;;;;;;18.70;9.98;;;;;;;;;;4771986;29;20069;-86
2021/09/22 10:41:24;;;;;;;17.40;10.75;;;;;;;;;;4769374;30;20042;-84
2021/09/22 10:43:49;;;;;;;15.23;10.68;;;;;;;;;;4774832;30;20106;-85
2021/09/22 10:46:18;;;;;;;15.32;10.35;;;;;;;;;;4756972;30;20131;-85
2021/09/22 10:49:03;;;;;;;15.15;9.82;;;;;;;;;;4771218;30;20039;-85
2021/09/22 10:51:34;;;;;;;15.77;9.40;;;;;;;;;;4754997;30;20043;-84
2021/09/22 10:54:19;;;;;;;14.77;9.35;;;;;;;;;;4780321;29;20058;-83
2021/09/22 10:56:56;;;;;;;15.82;9.38;;;;;;;;;;4791672;29;20063;-84
2021/09/22 10:59:31;;;;;;;16.90;10.32;;;;;;;;;;4791164;29;20511;-83
2021/09/22 11:01:58;;;;;;;14.35;9.48;;;;;;;;;;4788639;30;20087;-86
2021/09/22 11:04:24;;;;;;;16.10;9.90;;;;;;;;;;4762062;30;20043;-86
2021/09/22 11:06:52;;;;;;;14.82;9.48;;;;;;;;;;4775718;30;20416;-84
2021/09/22 11:09:17;;;;;;;14.52;10.07;;;;;;;;;;4787616;29;20561;-86
2021/09/22 11:11:55;;;;;;;13.98;9.75;;;;;;;;;;4781232;29;20043;-85
2021/09/22 11:14:27;;;;;;;14.63;9.27;;;;;;;;;;4789252;29;20035;-85
2021/09/22 11:16:53;;;;;;;14.00;9.07;;;;;;;;;;4792929;29;20038;-85
2021/09/22 11:19:20;;;;;;;14.35;9.65;;;;;;;;;;4784955;29;20070;-85
2021/09/22 11:21:47;;;;;;;13.20;8.23;;;;;;;;;;4797122;29;20030;-85
2021/09/22 11:24:15;;;;;;;12.38;7.70;;;;;;;;;;4776931;29;20504;-84
2021/09/22 11:26:54;;;;;;;12.60;7.05;;;;;;;;;;4791904;29;20035;-83
2021/09/22 11:29:33;;;;;;;12.70;9.18;;;;;;;;;;4793230;29;20038;-80
2021/09/22 11:31:59;;;;;;;15.70;9.32;;;;;;;;;;4791382;29;20031;-80
2021/09/22 11:34:31;;;;;;;13.10;8.52;;;;;;;;;;4784626;29;20097;-80
2021/09/22 11:37:08;;;;;;;13.40;8.88;;;;;;;;;;4773078;30;20035;-80
2021/09/22 11:39:34;;;;;;;12.95;8.90;;;;;;;;;;4788599;29;20126;-80
2021/09/22 11:42:01;;;;;;;14.40;9.77;;;;;;;;;;4785299;29;20047;-80
2021/09/22 11:44:31;;;;;;;14.50;9.32;;;;;;;;;;4787172;30;20406;-81
2021/09/22 11:47:02;;;;;;;15.50;9.27;;;;;;;;;;4760338;29;20383;-81
2021/09/22 11:49:42;;;;;;;12.32;8.63;;;;;;;;;;4785000;29;20035;-80
2021/09/22 11:52:22;;;;;;;12.95;8.75;;;;;;;;;;4785454;29;20043;-82
2021/09/22 11:54:58;;;;;;;14.85;7.82;;;;;;;;;;4782634;29;20132;-80
2021/09/22 11:57:28;;;;;;;12.18;7.80;;;;;;;;;;4786097;29;20050;-82
2021/09/22 11:59:54;;;;;;;11.27;8.10;;;;;;;;;;4787563;29;20047;-80
2021/09/22 12:02:22;;;;;;;17.58;7.75;;;;;;;;;;4784750;29;20091;-81
2021/09/22 12:04:48;;;;;;;13.15;7.22;;;;;;;;;;4784276;29;20031;-80
2021/09/22 12:07:16;;;;;;;12.80;7.80;;;;;;;;;;4780150;29;20051;-82
2021/09/22 12:09:46;;;;;;;14.00;7.40;;;;;;;;;;4788123;29;20063;-82
2021/09/22 12:12:17;;;;;;;9.35;6.05;;;;;;;;;;4772375;30;20046;-79
2021/09/22 12:14:54;;;;;;;12.63;6.18;;;;;;;;;;4782807;29;20035;-80
2021/09/22 12:17:22;;;;;;;8.50;5.97;;;;;;;;;;4784493;29;20039;-81
2021/09/22 12:19:50;;;;;;;9.60;6.88;;;;;;;;;;4767366;29;20092;-79
2021/09/22 12:22:26;;;;;;;10.93;6.97;;;;;;;;;;4782472;30;20039;-82
2021/09/22 12:24:52;;;;;;;9.95;6.57;;;;;;;;;;4784005;29;20027;-82
2021/09/22 12:27:23;;;;;;;9.65;6.90;;;;;;;;;;4775409;29;20184;-81
2021/09/22 12:30:06;;;;;;;12.10;6.75;;;;;;;;;;4781767;30;20031;-79
2021/09/22 12:32:53;;;;;;;12.60;6.40;;;;;;;;;;4779910;29;20062;-81
2021/09/22 12:35:20;;;;;;;10.50;6.82;;;;;;;;;;4786764;29;20096;-79
2021/09/22 12:38:01;;;;;;;11.38;6.40;;;;;;;;;;4780192;29;20043;-79
2021/09/22 12:40:32;;;;;;;10.90;5.75;;;;;;;;;;4779785;29;20028;-82
2021/09/22 12:42:59;;;;;;;9.60;6.18;;;;;;;;;;4782846;29;20446;-79
2021/09/22 12:45:29;;;;;;;10.60;5.78;;;;;;;;;;4792156;29;20069;-79
2021/09/22 12:48:05;;;;;;;10.02;5.90;;;;;;;;;;4784473;29;20460;-82
2021/09/22 12:50:33;;;;;;;9.85;6.90;;;;;;;;;;4782543;29;20120;-80
2021/09/22 12:53:16;;;;;;;15.13;7.78;;;;;;;;;;4788006;29;20042;-81
2021/09/22 12:55:41;;;;;;;10.73;7.40;;;;;;;;;;4767803;29;20038;-80
2021/09/22 12:58:10;;;;;;;12.45;7.55;;;;;;;;;;4784043;30;20039;-80
2021/09/22 13:00:37;;;;;;;9.10;6.25;;;;;;;;;;4782778;29;20035;-81
2021/09/22 13:03:07;;;;;;;9.00;6.28;;;;;;;;;;4776921;30;20039;-80
2021/09/22 13:05:37;;;;;;;9.45;6.32;;;;;;;;;;4779534;29;20548;-81
2021/09/22 13:08:06;;;;;;;8.82;5.75;;;;;;;;;;4781296;29;20081;-81
2021/09/22 13:10:56;;;;;;;9.07;5.90;;;;;;;;;;4785809;29;20042;-80
2021/09/22 13:13:22;;;;;;;11.68;5.88;;;;;;;;;;4785133;29;20035;-80
2021/09/22 13:15:48;;;;;;;8.95;5.95;;;;;;;;;;4786662;29;20035;-79
2021/09/22 13:18:13;;;;;;;9.23;6.18;;;;;;;;;;4780492;29;20073;-82
2021/09/22 13:20:38;;;;;;;11.45;6.28;;;;;;;;;;4786960;29;20047;-81
2021/09/22 13:23:05;;;;;;;8.73;6.10;;;;;;;;;;4763500;30;20035;-79
2021/09/22 13:25:30;;;;;;;8.57;6.10;;;;;;;;;;4779392;29;20071;-79
2021/09/22 13:27:55;;;;;;;9.20;6.20;;;;;;;;;;4783415;29;20058;-80
2021/09/22 13:30:21;;;;;;;9.95;6.65;;;;;;;;;;4771345;29;20149;-80
2021/09/22 13:32:50;;;;;;;9.68;6.95;;;;;;;;;;4783530;29;20039;-80
2021/09/22 13:35:16;;;;;;;10.18;6.40;;;;;;;;;;4767887;30;20100;-81
2021/09/22 13:37:41;;;;;;;10.85;6.20;;;;;;;;;;4769352;30;20752;-79
2021/09/22 13:40:07;;;;;;;9.15;6.57;;;;;;;;;;4783603;29;20051;-80
2021/09/22 13:42:33;;;;;;;8.85;6.18;;;;;;;;;;4767399;30;20095;-84
2021/09/22 13:44:58;;;;;;;9.48;5.20;;;;;;;;;;4788391;29;20038;-80
2021/09/22 13:47:24;;;;;;;7.57;5.25;;;;;;;;;;4771443;30;20127;-80
2021/09/22 13:49:49;;;;;;;9.55;5.50;;;;;;;;;;4773791;30;20096;-81
2021/09/22 13:52:16;;;;;;;8.82;5.25;;;;;;;;;;4741348;30;20046;-81
2021/09/22 13:54:41;;;;;;;9.10;5.40;;;;;;;;;;4785692;29;20083;-80
2021/09/22 13:57:06;;;;;;;10.32;6.15;;;;;;;;;;4775503;29;20066;-81
2021/09/22 13:59:32;;;;;;;9.65;6.18;;;;;;;;;;4771443;30;20118;-79
2021/09/22 14:01:57;;;;;;;8.00;5.60;;;;;;;;;;4765811;30;20062;-81
2021/09/22 14:04:23;;;;;;;8.63;5.28;;;;;;;;;;4790339;29;20071;-83
2021/09/22 14:06:48;;;;;;;11.35;5.65;;;;;;;;;;4765999;30;20035;-80
2021/09/22 14:09:14;;;;;;;9.50;6.10;;;;;;;;;;4753416;30;20046;-79
2021/09/22 14:11:39;;;;;;;9.50;6.38;;;;;;;;;;4768401;30;20180;-80
2021/09/22 14:14:06;;;;;;;10.05;6.50;;;;;;;;;;4768779;30;20050;-81
2021/09/22 14:16:32;;;;;;;10.30;6.40;;;;;;;;;;4769281;30;20043;-82
2021/09/22 14:18:57;;;;;;;11.25;6.68;;;;;;;;;;4767937;29;20061;-84
2021/09/22 14:21:23;;;;;;;9.48;6.18;;;;;;;;;;4780712;30;20047;-83